Latest Weather Observations for Mount Moornapa

IDV60801

Issued at 3:32 am EST Tuesday 22 August 2017 (issued every 30 minutes, with the page automatically refreshed every 10 minutes)

About weather observations | Map of weather stations | Latest weather observations for VIC | Other Formats
Station Details ID: 085296 Name: MOUNT MOORNAPA Lat: -37.75 Lon: 147.14 Height: 480.0 m
Data from the previous 72 hours. | See also: Recent months at Mount Moornapa
Date/Time
EST
Temp
°C
App
Temp
°C
Dew
Point
°C
Rel
Hum
%
Delta-T
°C
Wind Press
QNH
hPa
Press
MSL
hPa
Rain since
9am
mm
Dir  Spd
km/h
Gust
km/h
Spd
kts
Gust
kts
22/03:30am 6.2 2.7 1.5 72 1.9 N 9 11 5 6 - - 0.2
22/03:00am 6.4 3.3 1.3 70 2.1 N 7 9 4 5 - - 0.2
22/02:30am 6.8 3.3 1.5 69 2.2 N 9 11 5 6 - - 0.2
22/02:00am 7.0 3.5 1.5 68 2.3 N 9 11 5 6 - - 0.2
22/01:30am 6.6 3.2 1.7 71 2.0 N 9 13 5 7 - - 0.2
22/01:00am 6.7 3.3 1.8 71 2.0 N 9 13 5 7 - - 0.2
22/12:30am 6.5 3.1 1.8 72 2.0 N 9 13 5 7 - - 0.2
22/12:00am 6.3 2.5 2.0 74 1.8 N 11 15 6 8 - - 0.2
 
Date/Time
EST
Temp
°C
App
Temp
°C
Dew
Point
°C
Rel
Hum
%
Delta-T
°C
Wind Press
QNH
hPa
Press
MSL
hPa
Rain since
9am
mm
Dir  Spd
km/h
Gust
km/h
Spd
kts
Gust
kts
21/11:30pm 6.3 2.6 2.2 75 1.7 N 11 15 6 8 - - 0.2
21/11:00pm 5.6 2.8 2.9 83 1.1 N 7 13 4 7 - - 0.2
21/10:30pm 5.5 2.7 3.2 85 1.0 N 7 11 4 6 - - 0.2
21/10:00pm 5.9 3.3 3.1 82 1.2 NNE 6 7 3 4 - - 0.2
21/09:30pm 6.1 3.4 2.7 79 1.4 NNE 6 6 3 3 - - 0.2
21/09:00pm 6.2 3.5 2.7 78 1.5 NNE 6 7 3 4 - - 0.2
21/08:30pm 6.7 5.2 2.8 76 1.7 CALM 0 4 0 2 - - 0.2
21/08:00pm 6.5 4.9 2.6 76 1.7 CALM 0 0 0 0 - - 0.2
21/07:30pm 6.4 4.8 2.7 77 1.6 CALM 0 0 0 0 - - 0.2
21/07:00pm 6.0 4.1 2.8 80 1.4 E 2 6 1 3 - - 0.2
21/06:30pm 5.9 3.3 3.2 83 1.2 E 6 9 3 5 - - 0.2
21/06:00pm 6.0 3.8 3.3 83 1.2 ESE 4 6 2 3 - - 0.2
21/05:30pm 6.3 4.8 3.1 80 1.4 CALM 0 0 0 0 - - 0.2
21/05:00pm 6.8 5.4 3.4 79 1.5 CALM 0 0 0 0 - - 0.2
21/04:30pm 7.3 5.8 3.0 74 1.9 CALM 0 0 0 0 - - 0.2
21/04:00pm 7.3 5.8 3.0 74 1.9 CALM 0 0 0 0 - - 0.2
21/03:30pm 7.6 6.1 2.9 72 2.0 CALM 0 0 0 0 - - 0.2
21/03:00pm 8.2 6.7 2.9 69 2.3 CALM 0 0 0 0 - - 0.2
21/02:30pm 8.0 6.1 3.1 71 2.1 SE 2 6 1 3 - - 0.2
21/02:00pm 7.3 5.4 2.6 72 2.0 SW 2 4 1 2 - - 0.2
21/01:30pm 7.6 5.7 2.9 72 2.0 NE 2 7 1 4 - - 0.2
21/01:00pm 7.2 4.9 2.9 74 1.9 NE 4 9 2 5 - - 0.2
21/12:30pm 6.5 4.8 4.0 84 1.1 NE 2 6 1 3 - - 0.2
21/12:00pm 5.6 3.2 2.4 80 1.3 ENE 4 9 2 5 - - 0.2
21/11:30am 5.7 3.6 4.0 89 0.7 E 4 7 2 4 - - 0.2
21/11:00am 5.4 3.8 4.4 93 0.4 ESE 2 4 1 2 - - 0.2
21/10:30am 5.0 2.4 3.2 88 0.8 N 6 11 3 6 - - 0.0
21/10:00am 5.2 1.9 2.6 83 1.1 NNW 9 17 5 9 - - 0.0
21/09:30am 5.6 1.2 0.6 70 2.0 NNW 13 20 7 11 - - 0.0
21/09:00am 6.5 3.2 -1.2 58 3.0 NNE 6 9 3 5 - - 0.0
21/08:30am 5.3 2.1 -0.7 65 2.3 NNE 6 9 3 5 - - 0.0
21/08:00am 5.9 2.9 -1.7 58 2.9 NE 4 6 2 3 - - 0.0
21/07:30am 5.7 2.4 -1.4 60 2.7 NNE 6 7 3 4 - - 0.0
21/07:00am 5.6 2.3 -1.3 61 2.6 N 6 7 3 4 - - 0.0
21/06:30am 5.5 2.6 -1.4 61 2.6 NNW 4 6 2 3 - - 0.0
21/06:00am 4.8 1.6 -0.6 68 2.1 N 6 9 3 5 - - 0.0
21/05:30am 4.8 1.1 -0.2 70 1.9 N 9 13 5 7 - - 0.0
21/05:00am 5.1 1.9 -0.3 68 2.1 WNW 6 11 3 6 - - 0.0
21/04:30am 4.9 1.8 -0.1 70 2.0 WNW 6 7 3 4 - - 0.0
21/04:00am 4.4 1.3 0.0 73 1.7 NW 6 7 3 4 - - 0.0
21/03:30am 4.3 1.2 0.3 75 1.6 NNW 6 7 3 4 - - 0.0
21/03:00am 3.9 0.6 0.2 77 1.4 NW 7 9 4 5 - - 0.0
21/02:30am 4.6 0.6 0.2 73 1.7 NNW 11 15 6 8 - - 0.0
21/02:00am 4.3 0.3 0.5 76 1.5 NNW 11 17 6 9 - - 0.0
21/01:30am 4.2 0.2 0.5 77 1.5 NNW 11 17 6 9 - - 0.0
21/01:00am 4.0 0.0 0.3 77 1.4 N 11 13 6 7 - - 0.0
21/12:30am 4.0 0.0 0.3 77 1.4 N 11 15 6 8 - - 0.0
21/12:00am 4.1 0.8 0.3 76 1.5 N 7 11 4 6 - - 0.0
 
Date/Time
EST
Temp
°C
App
Temp
°C
Dew
Point
°C
Rel
Hum
%
Delta-T
°C
Wind Press
QNH
hPa
Press
MSL
hPa
Rain since
9am
mm
Dir  Spd
km/h
Gust
km/h
Spd
kts
Gust
kts
20/11:30pm 4.0 0.4 0.5 78 1.4 N 9 13 5 7 - - 0.0
20/11:00pm 4.2 0.2 0.7 78 1.4 N 11 13 6 7 - - 0.0
20/10:30pm 4.1 0.8 0.3 76 1.5 N 7 13 4 7 - - 0.0
20/10:00pm 3.8 0.5 0.0 76 1.5 NNE 7 11 4 6 - - 0.0
20/09:30pm 4.2 1.2 0.5 77 1.5 NNE 6 11 3 6 - - 0.0
20/09:00pm 4.6 1.3 0.2 73 1.7 ENE 7 17 4 9 - - 0.0
20/08:30pm 4.7 1.5 0.5 74 1.7 ENE 7 20 4 11 - - 0.0
20/08:00pm 4.6 1.4 0.7 76 1.6 E 7 17 4 9 - - 0.0
20/07:30pm 4.7 1.2 1.0 77 1.5 E 9 17 5 9 - - 0.0
20/07:00pm 4.8 1.6 0.9 76 1.6 E 7 15 4 8 - - 0.0
20/06:30pm 5.1 2.4 0.3 71 1.9 ESE 4 11 2 6 - - 0.0
20/06:00pm 5.1 2.5 1.0 75 1.7 ESE 4 6 2 3 - - 0.0
20/05:30pm 5.8 2.8 0.6 69 2.1 SE 6 7 3 4 - - 0.0
20/05:00pm 6.8 3.8 0.5 64 2.6 SE 6 7 3 4 - - 0.0
20/04:30pm 7.5 4.4 0.3 60 2.9 SE 6 7 3 4 - - 0.0
20/04:00pm 9.1 6.5 0.8 56 3.5 SE 4 9 2 5 - - 0.0
20/03:30pm 9.8 7.5 0.7 53 3.8 SE 2 6 1 3 - - 0.0
20/03:00pm 10.2 7.5 0.5 51 4.1 ESE 4 9 2 5 - - 0.0
20/02:30pm 10.2 7.4 -0.6 47 4.4 SW 4 9 2 5 - - 0.0
20/02:00pm 9.8 7.4 -0.4 49 4.2 S 2 6 1 3 - - 0.0
20/01:30pm 8.7 6.2 -1.1 50 3.9 WSW 2 6 1 3 - - 0.0
20/01:00pm 7.5 4.6 -0.9 55 3.3 SW 4 6 2 3 - - 0.0
20/12:30pm 7.4 5.0 -0.5 57 3.1 S 2 6 1 3 - - 0.0
20/12:00pm 7.7 5.4 0.7 61 2.9 SW 2 7 1 4 - - 0.0
20/11:30am 9.5 7.2 0.4 53 3.8 W 2 11 1 6 - - 0.0
20/11:00am 8.4 5.8 0.9 59 3.1 SW 4 6 2 3 - - 0.0
20/10:30am 6.9 4.7 1.0 66 2.4 WSW 2 7 1 4 - - 0.0
20/10:00am 7.2 5.0 1.3 66 2.4 WSW 2 6 1 3 - - 0.0
20/09:30am 6.5 4.0 1.6 71 2.0 NW 4 9 2 5 - - 0.0
20/09:00am 5.5 2.9 1.1 73 1.8 WNW 4 6 2 3 - - 0.0
20/08:30am 5.0 2.0 0.6 73 1.8 WNW 6 9 3 5 - - 0.0
20/08:00am 4.2 1.5 0.5 77 1.5 WNW 4 7 2 4 - - 0.0
20/07:30am 3.9 0.8 0.1 76 1.5 WNW 6 11 3 6 - - 0.0
20/07:00am 3.9 1.1 -0.3 74 1.6 NW 4 6 2 3 - - 0.0
20/06:30am 4.1 1.0 -0.1 74 1.6 W 6 11 3 6 - - 0.0
20/06:00am 3.8 0.5 0.1 77 1.4 W 7 13 4 7 - - 0.0
20/05:30am 3.3 0.2 0.4 81 1.1 WNW 6 7 3 4 - - 0.0
20/05:00am 3.0 -0.1 0.4 83 1.0 WNW 6 6 3 3 - - 0.0
20/04:30am 2.9 -0.2 0.3 83 1.0 NW 6 7 3 4 - - 0.0
20/04:00am 2.8 -0.4 0.7 86 0.8 NW 7 9 4 5 - - 0.0
20/03:30am 3.6 0.3 0.1 78 1.4 WSW 7 15 4 8 - - 0.0
20/03:00am 3.8 0.6 1.0 82 1.1 W 7 13 4 7 - - 0.0
20/02:30am 3.4 -0.2 0.8 83 1.0 W 9 15 5 8 - - 0.0
20/02:00am 3.5 0.0 1.2 85 0.9 W 9 17 5 9 - - 0.0
20/01:30am 3.5 0.0 1.1 84 1.0 W 9 15 5 8 - - 0.0
20/01:00am 3.9 0.8 1.3 83 1.0 W 7 15 4 8 - - 0.0
20/12:30am 3.6 0.1 1.2 84 1.0 W 9 15 5 8 - - 0.0
20/12:00am 4.2 1.1 1.4 82 1.1 W 7 13 4 7 - - 0.0
 
Date/Time
EST
Temp
°C
App
Temp
°C
Dew
Point
°C
Rel
Hum
%
Delta-T
°C
Wind Press
QNH
hPa
Press
MSL
hPa
Rain since
9am
mm
Dir  Spd
km/h
Gust
km/h
Spd
kts
Gust
kts
19/11:30pm 4.3 0.8 1.5 82 1.1 W 9 20 5 11 - - 0.0
19/11:00pm 4.2 1.1 1.4 82 1.1 W 7 13 4 7 - - 0.0
19/10:30pm 4.2 1.1 1.4 82 1.1 W 7 15 4 8 - - 0.0
19/10:00pm 4.1 1.2 1.3 82 1.1 WSW 6 9 3 5 - - 0.0
19/09:30pm 4.0 0.8 1.0 81 1.2 WSW 7 13 4 7 - - 0.0
19/09:00pm 4.3 1.3 1.0 79 1.3 WSW 6 11 3 6 - - 0.0
19/08:30pm 4.3 1.1 0.6 77 1.5 SW 7 13 4 7 - - 0.0
19/08:00pm 3.8 0.7 0.3 78 1.4 SW 6 11 3 6 - - 0.0
19/07:30pm 3.7 1.0 0.2 78 1.4 SSW 4 15 2 8 - - 0.0
19/07:00pm 4.3 1.3 0.5 76 1.5 SSW 6 20 3 11 - - 0.0
19/06:30pm 4.2 0.9 0.2 75 1.6 SW 7 20 4 11 - - 0.0
19/06:00pm 4.5 1.4 0.3 74 1.7 SSW 6 13 3 7 - - 0.0
19/05:30pm 5.3 2.7 0.7 72 1.8 S 4 11 2 6 - - 0.0
19/05:00pm 5.8 2.8 0.6 69 2.1 SW 6 13 3 7 - - 0.0
19/04:30pm 6.0 3.0 0.6 68 2.2 SSW 6 19 3 10 - - 0.0
19/04:00pm 6.6 3.6 0.9 67 2.3 S 6 9 3 5 - - 0.0
19/03:30pm 7.6 4.6 0.6 61 2.9 SW 6 17 3 9 - - 0.0
19/03:00pm 7.5 4.3 0.7 62 2.8 SW 7 22 4 12 - - 0.0
19/02:30pm 8.2 4.7 1.4 62 2.9 SW 9 22 5 12 - - 0.0
19/02:00pm 7.4 4.9 1.3 65 2.5 SW 4 11 2 6 - - 0.0
19/01:30pm 7.4 3.3 -0.3 58 3.1 SW 11 22 6 12 - - 0.0
19/01:00pm 7.0 3.3 0.0 61 2.8 WSW 9 22 5 12 - - 0.0
19/12:30pm 7.2 3.4 -1.0 56 3.2 WSW 9 20 5 11 - - 0.0
19/12:00pm 6.9 3.6 -0.1 61 2.8 SW 7 19 4 10 - - 0.0
19/11:30am 6.4 3.1 0.1 64 2.5 SW 7 17 4 9 - - 0.0
19/11:00am 7.0 3.0 0.7 64 2.6 SW 11 32 6 17 - - 0.0
19/10:30am 6.5 2.0 0.0 63 2.6 SW 13 26 7 14 - - 0.0
19/10:00am 5.6 0.8 0.0 67 2.2 SW 15 32 8 17 - - 0.0
19/09:30am 5.6 2.0 0.6 70 2.0 SW 9 20 5 11 - - 0.0
19/09:00am 5.0 1.1 0.9 75 1.6 WSW 11 28 6 15 - - 6.6
19/08:30am 4.0 0.0 0.5 78 1.4 SW 11 26 6 14 - - 6.6
19/08:00am 3.1 -0.9 0.5 83 1.0 WSW 11 28 6 15 - - 6.6
19/07:30am 2.9 -1.4 0.8 86 0.8 WSW 13 28 7 15 - - 6.6
19/07:00am 2.9 -1.4 0.8 86 0.8 WSW 13 24 7 13 - - 6.6
19/06:30am 2.9 -1.8 1.0 87 0.7 WSW 15 28 8 15 - - 6.6
19/06:00am 2.7 -1.6 1.1 89 0.6 WSW 13 26 7 14 - - 6.6
19/05:30am 2.7 -1.2 1.2 90 0.6 WSW 11 24 6 13 - - 6.6
19/05:00am 2.8 -1.5 1.3 90 0.6 WSW 13 24 7 13 - - 6.6
19/04:30am 2.9 -1.3 1.4 90 0.6 W 13 22 7 12 - - 6.6
19/04:00am 2.8 -1.0 1.5 91 0.5 W 11 22 6 12 - - 6.6

Other Formats:

Comma delimited format used in spreadsheet applications
http://www.bom.gov.au/fwo/IDV60801/IDV60801.95913.axf

JavaScript Object Notation format (JSON) in row-major order
http://www.bom.gov.au/fwo/IDV60801/IDV60801.95913.json